Time;durP1;ratioP1;P1;durP2;ratioP2;P2;SDS_P1;SDS_P2;PMS_P1;PMS_P2;Temp;Humidity;BMP_temperature;BMP_pressure;BME280_temperature;BME280_humidity;BME280_pressure;Samples;Min_cycle;Max_cycle;Signal;HPM_P1;HPM_P2
2021/05/17 00:00:27;;;;;;;;;;;23.40;44.30;;;;;;1618608;72;686;-66
2021/05/17 00:02:29;;;;;;;;;;;23.40;44.30;;;;;;1636902;72;1144;-69
2021/05/17 00:04:35;;;;;;;;;;;23.40;44.30;;;;;;1628499;72;953;-68
2021/05/17 00:06:37;;;;;;;;;;;23.50;44.40;;;;;;1618834;72;895;-68
2021/05/17 00:08:39;;;;;;;;;;;23.40;44.40;;;;;;1621261;72;756;-68
2021/05/17 00:10:41;;;;;;;;;;;23.40;44.50;;;;;;1611641;72;737;-68
2021/05/17 00:12:43;;;;;;;;;;;23.40;44.40;;;;;;1607790;72;1932;-69
2021/05/17 00:14:45;;;;;;;;;;;23.40;44.40;;;;;;1626640;72;805;-69
2021/05/17 00:16:47;;;;;;;;;;;23.40;44.40;;;;;;1613801;72;686;-69
2021/05/17 00:18:49;;;;;;;;;;;23.40;44.40;;;;;;1608671;72;726;-70
2021/05/17 00:20:51;;;;;;;;;;;23.50;44.50;;;;;;1607967;72;698;-68
2021/05/17 00:22:53;;;;;;;;;;;23.50;44.70;;;;;;1614194;72;1156;-68
2021/05/17 00:24:55;;;;;;;;;;;23.40;44.60;;;;;;1625239;72;799;-69
2021/05/17 00:26:57;;;;;;;;;;;23.50;44.90;;;;;;1614204;72;764;-68
2021/05/17 00:28:59;;;;;;;;;;;23.50;44.90;;;;;;1624246;72;719;-68
2021/05/17 00:31:01;;;;;;;;;;;23.50;45.00;;;;;;1616038;72;733;-67
2021/05/17 00:33:03;;;;;;;;;;;23.50;45.00;;;;;;1632562;72;1932;-68
2021/05/17 00:35:05;;;;;;;;;;;23.50;44.90;;;;;;1615379;72;721;-68
2021/05/17 00:37:07;;;;;;;;;;;23.50;44.90;;;;;;1607430;72;723;-68
2021/05/17 00:39:10;;;;;;;;;;;23.40;45.10;;;;;;1606388;72;703;-67
2021/05/17 00:41:12;;;;;;;;;;;23.50;45.10;;;;;;1615360;72;702;-67
2021/05/17 00:43:14;;;;;;;;;;;23.40;45.00;;;;;;1618376;72;1169;-68
2021/05/17 00:45:16;;;;;;;;;;;23.40;45.10;;;;;;1608547;72;846;-67
2021/05/17 00:47:18;;;;;;;;;;;23.40;45.20;;;;;;1621702;72;756;-67
2021/05/17 00:49:20;;;;;;;;;;;23.40;45.20;;;;;;1620554;72;671;-67
2021/05/17 00:51:22;;;;;;;;;;;23.40;45.10;;;;;;1606672;72;1947;-67
2021/05/17 00:53:24;;;;;;;;;;;23.50;45.40;;;;;;1617888;72;1167;-68
2021/05/17 00:55:28;;;;;;;;;;;23.30;45.20;;;;;;1612650;72;778;-69
2021/05/17 00:57:30;;;;;;;;;;;23.40;45.30;;;;;;1625950;72;779;-70
2021/05/17 00:59:34;;;;;;;;;;;23.40;45.20;;;;;;1629197;72;701;-68
2021/05/17 01:01:36;;;;;;;;;;;23.40;45.30;;;;;;1619263;72;772;-66
2021/05/17 01:03:38;;;;;;;;;;;23.50;45.20;;;;;;1621821;72;1139;-68
2021/05/17 01:05:40;;;;;;;;;;;23.40;44.90;;;;;;1611115;72;689;-68
2021/05/17 01:07:49;;;;;;;;;;;23.40;45.20;;;;;;1622829;72;821;-69
2021/05/17 01:09:51;;;;;;;;;;;23.40;45.00;;;;;;1621017;72;683;-68
2021/05/17 01:12:00;;;;;;;;;;;23.30;45.20;;;;;;1618621;72;1938;-68
2021/05/17 01:14:03;;;;;;;;;;;23.40;45.30;;;;;;1605601;72;1174;-68
2021/05/17 01:16:05;;;;;;;;;;;23.30;45.50;;;;;;1615519;72;811;-68
2021/05/17 01:18:07;;;;;;;;;;;23.40;45.40;;;;;;1626706;72;683;-67
2021/05/17 01:20:10;;;;;;;;;;;23.40;45.20;;;;;;1622677;72;679;-69
2021/05/17 01:22:22;;;;;;;;;;;23.40;45.20;;;;;;1605551;72;728;-67
2021/05/17 01:24:16;;;;;;;;;;;23.40;45.20;;;;;;1625138;72;1694;-67
2021/05/17 01:26:18;;;;;;;;;;;23.30;45.20;;;;;;1622004;72;940;-68
2021/05/17 01:28:22;;;;;;;;;;;23.40;45.20;;;;;;1629403;72;800;-69
2021/05/17 01:30:24;;;;;;;;;;;23.40;45.00;;;;;;1617512;72;884;-67
2021/05/17 01:32:26;;;;;;;;;;;23.30;45.10;;;;;;1615658;72;1935;-68
2021/05/17 01:34:28;;;;;;;;;;;23.40;45.00;;;;;;1617468;72;782;-68
2021/05/17 01:36:30;;;;;;;;;;;23.40;45.10;;;;;;1613185;72;904;-68
2021/05/17 01:38:32;;;;;;;;;;;23.40;45.00;;;;;;1612305;72;818;-68
2021/05/17 01:40:35;;;;;;;;;;;23.40;45.00;;;;;;1609328;72;781;-70
2021/05/17 01:42:40;;;;;;;;;;;23.30;45.00;;;;;;1620551;72;1195;-69
2021/05/17 01:44:42;;;;;;;;;;;23.30;45.00;;;;;;1618304;72;792;-70
2021/05/17 01:46:44;;;;;;;;;;;23.40;45.20;;;;;;1610707;72;888;-70
2021/05/17 01:48:46;;;;;;;;;;;23.30;45.20;;;;;;1619387;72;764;-69
2021/05/17 01:50:48;;;;;;;;;;;23.40;45.20;;;;;;1613245;72;684;-69
2021/05/17 01:52:50;;;;;;;;;;;23.40;45.10;;;;;;1611147;72;1924;-69
2021/05/17 01:54:52;;;;;;;;;;;23.40;45.00;;;;;;1625859;72;780;-67
2021/05/17 01:56:53;;;;;;;;;;;23.40;45.10;;;;;;1623601;72;821;-69
2021/05/17 01:58:55;;;;;;;;;;;23.40;45.10;;;;;;1593663;73;1325;-68
2021/05/17 02:00:58;;;;;;;;;;;23.40;45.10;;;;;;1620174;72;774;-69
2021/05/17 02:02:59;;;;;;;;;;;23.40;44.90;;;;;;1622579;72;1165;-70
2021/05/17 02:05:01;;;;;;;;;;;23.40;45.00;;;;;;1630294;72;791;-67
2021/05/17 02:07:03;;;;;;;;;;;23.40;44.80;;;;;;1623293;72;781;-71
2021/05/17 02:09:05;;;;;;;;;;;23.40;44.70;;;;;;1620854;72;750;-67
2021/05/17 02:11:09;;;;;;;;;;;23.40;44.60;;;;;;1612521;72;745;-67
2021/05/17 02:13:12;;;;;;;;;;;23.40;44.70;;;;;;1595385;72;218615;-67
2021/05/17 02:15:16;;;;;;;;;;;23.40;44.50;;;;;;1538136;76;1823;-68
2021/05/17 02:17:20;;;;;;;;;;;23.40;44.70;;;;;;1521779;76;1002;-67
2021/05/17 02:19:23;;;;;;;;;;;23.40;44.60;;;;;;1571865;74;1840;-67
2021/05/17 02:21:25;;;;;;;;;;;23.30;44.60;;;;;;1584957;74;748;-69
2021/05/17 02:23:27;;;;;;;;;;;23.40;44.70;;;;;;1584062;74;1203;-68
2021/05/17 02:25:29;;;;;;;;;;;23.30;44.70;;;;;;1575784;74;823;-70
2021/05/17 02:27:31;;;;;;;;;;;23.40;44.70;;;;;;1580977;74;802;-70
2021/05/17 02:29:34;;;;;;;;;;;23.40;44.40;;;;;;1570106;74;754;-71
2021/05/17 02:31:36;;;;;;;;;;;23.30;44.70;;;;;;1566187;74;790;-70
2021/05/17 02:33:37;;;;;;;;;;;23.40;44.80;;;;;;1589237;74;1980;-70
2021/05/17 02:35:39;;;;;;;;;;;23.40;44.90;;;;;;1573063;74;728;-71
2021/05/17 02:37:41;;;;;;;;;;;23.40;45.00;;;;;;1571353;74;750;-68
2021/05/17 02:39:43;;;;;;;;;;;23.40;44.90;;;;;;1567139;74;790;-65
2021/05/17 02:41:45;;;;;;;;;;;23.40;45.00;;;;;;1575401;74;736;-67
2021/05/17 02:43:47;;;;;;;;;;;23.50;45.00;;;;;;1568816;74;1194;-69
2021/05/17 02:45:49;;;;;;;;;;;23.30;44.70;;;;;;1565640;74;727;-69
2021/05/17 02:47:51;;;;;;;;;;;23.30;44.90;;;;;;1564292;74;777;-70
2021/05/17 02:49:54;;;;;;;;;;;23.40;45.00;;;;;;1560872;74;728;-69
2021/05/17 02:51:56;;;;;;;;;;;23.40;44.80;;;;;;1575252;74;708;-67
2021/05/17 02:54:02;;;;;;;;;;;23.40;44.70;;;;;;1573548;74;1932;-70
2021/05/17 02:56:14;;;;;;;;;;;23.40;44.60;;;;;;1570951;74;827;-70
2021/05/17 02:58:17;;;;;;;;;;;23.40;44.50;;;;;;1564334;74;740;-69
2021/05/17 03:00:20;;;;;;;;;;;23.30;44.50;;;;;;1572884;74;794;-67
2021/05/17 03:02:22;;;;;;;;;;;23.40;44.40;;;;;;1578893;74;823;-67
2021/05/17 03:04:24;;;;;;;;;;;23.40;44.30;;;;;;1567210;74;1123;-68
2021/05/17 03:06:30;;;;;;;;;;;23.50;44.50;;;;;;1566918;74;775;-69
2021/05/17 03:08:43;;;;;;;;;;;23.40;44.30;;;;;;1570265;74;1021;-70
2021/05/17 03:10:45;;;;;;;;;;;23.40;44.20;;;;;;1571063;74;1952;-70
2021/05/17 03:12:47;;;;;;;;;;;23.40;44.20;;;;;;1577903;74;1929;-69
2021/05/17 03:14:50;;;;;;;;;;;23.40;44.00;;;;;;1567348;74;724;-68
2021/05/17 03:16:52;;;;;;;;;;;23.40;44.00;;;;;;1566597;74;830;-69
2021/05/17 03:18:54;;;;;;;;;;;23.40;44.00;;;;;;1572815;74;791;-69
2021/05/17 03:20:56;;;;;;;;;;;23.40;43.80;;;;;;1566516;74;730;-70
2021/05/17 03:22:58;;;;;;;;;;;23.40;43.90;;;;;;1563821;74;1124;-71
2021/05/17 03:25:00;;;;;;;;;;;23.30;43.90;;;;;;1576642;74;804;-70
2021/05/17 03:27:20;;;;;;;;;;;23.40;43.90;;;;;;1573331;74;803;-71
2021/05/17 03:29:22;;;;;;;;;;;23.30;43.90;;;;;;1578512;74;775;-72
2021/05/17 03:31:24;;;;;;;;;;;23.30;44.00;;;;;;1574247;74;741;-70
2021/05/17 03:33:26;;;;;;;;;;;23.40;44.00;;;;;;1571021;74;1943;-72
2021/05/17 03:35:28;;;;;;;;;;;23.40;43.90;;;;;;1563283;74;737;-71
2021/05/17 03:37:29;;;;;;;;;;;23.40;43.90;;;;;;1566247;74;767;-70
2021/05/17 03:39:31;;;;;;;;;;;23.30;43.80;;;;;;1566130;74;792;-70
2021/05/17 03:41:33;;;;;;;;;;;23.40;43.80;;;;;;1567391;74;754;-69
2021/05/17 03:43:35;;;;;;;;;;;23.40;43.70;;;;;;1576381;74;1165;-70
2021/05/17 03:45:37;;;;;;;;;;;23.40;43.70;;;;;;1558818;74;819;-70
2021/05/17 03:47:39;;;;;;;;;;;23.40;43.70;;;;;;1574425;74;1045;-70
2021/05/17 03:49:41;;;;;;;;;;;23.30;43.60;;;;;;1563359;74;826;-70
2021/05/17 03:51:43;;;;;;;;;;;23.40;43.60;;;;;;1570613;74;790;-69
2021/05/17 03:53:45;;;;;;;;;;;23.30;43.60;;;;;;1571800;74;1947;-72
2021/05/17 03:55:47;;;;;;;;;;;23.40;43.60;;;;;;1575389;74;744;-71
2021/05/17 03:57:49;;;;;;;;;;;23.30;43.60;;;;;;1566055;74;750;-68
2021/05/17 03:59:50;;;;;;;;;;;23.30;43.60;;;;;;1574707;74;810;-71
2021/05/17 04:01:52;;;;;;;;;;;23.40;43.70;;;;;;1564934;74;806;-70
2021/05/17 04:03:55;;;;;;;;;;;23.30;43.70;;;;;;1570964;74;1087;-69
2021/05/17 04:06:22;;;;;;;;;;;23.30;43.70;;;;;;1571792;74;748;-70
2021/05/17 04:15:27;;;;;;;;;;;23.20;43.60;;;;;;1574613;74;1656;-70
2021/05/17 04:17:29;;;;;;;;;;;23.20;44.20;;;;;;1599671;72;708;-58
2021/05/17 04:19:31;;;;;;;;;;;23.20;43.60;;;;;;1603898;72;723;-58
2021/05/17 04:21:33;;;;;;;;;;;23.20;43.60;;;;;;1604945;72;1186;-58
2021/05/17 04:23:35;;;;;;;;;;;23.20;43.50;;;;;;1610083;72;691;-59
2021/05/17 04:25:37;;;;;;;;;;;23.20;43.60;;;;;;1609288;72;734;-59
2021/05/17 04:27:39;;;;;;;;;;;23.30;43.80;;;;;;1613635;72;818;-58
2021/05/17 04:29:41;;;;;;;;;;;23.20;43.70;;;;;;1611194;72;1154;-60
2021/05/17 04:31:43;;;;;;;;;;;23.20;43.70;;;;;;1606111;72;710;-61
2021/05/17 04:33:44;;;;;;;;;;;23.10;43.80;;;;;;1605326;72;1931;-59
2021/05/17 04:35:46;;;;;;;;;;;23.20;43.70;;;;;;1602998;72;770;-57
2021/05/17 04:37:48;;;;;;;;;;;23.20;43.60;;;;;;1604096;72;739;-59
2021/05/17 04:39:50;;;;;;;;;;;23.20;43.60;;;;;;1608935;72;1149;-63
2021/05/17 04:41:52;;;;;;;;;;;23.20;43.60;;;;;;1601629;72;728;-60
2021/05/17 04:43:54;;;;;;;;;;;23.20;43.40;;;;;;1605592;72;721;-59
2021/05/17 04:45:56;;;;;;;;;;;23.20;43.60;;;;;;1604211;72;808;-58
2021/05/17 04:47:58;;;;;;;;;;;23.20;43.60;;;;;;1600756;72;761;-58
2021/05/17 04:49:59;;;;;;;;;;;23.10;43.50;;;;;;1604933;72;1183;-60
2021/05/17 04:52:01;;;;;;;;;;;23.10;43.50;;;;;;1604648;72;899;-60
2021/05/17 04:54:03;;;;;;;;;;;23.10;43.50;;;;;;1614102;72;1932;-58
2021/05/17 04:56:05;;;;;;;;;;;23.10;43.50;;;;;;1604237;72;719;-59
2021/05/17 04:58:09;;;;;;;;;;;23.10;43.60;;;;;;1610797;72;789;-58
2021/05/17 05:00:11;;;;;;;;;;;23.10;43.60;;;;;;1605260;72;1074;-58
2021/05/17 05:02:13;;;;;;;;;;;23.10;43.70;;;;;;1609166;72;762;-58
2021/05/17 05:04:15;;;;;;;;;;;23.10;43.60;;;;;;1602961;72;796;-59
2021/05/17 05:06:16;;;;;;;;;;;23.10;43.60;;;;;;1606910;72;807;-59
2021/05/17 05:08:18;;;;;;;;;;;23.10;43.60;;;;;;1599403;72;807;-59
2021/05/17 05:10:20;;;;;;;;;;;23.10;43.60;;;;;;1606009;72;1150;-58
2021/05/17 05:12:22;;;;;;;;;;;23.10;43.70;;;;;;1606859;72;776;-60
2021/05/17 05:14:24;;;;;;;;;;;23.00;43.50;;;;;;1608641;72;1940;-59
2021/05/17 05:16:26;;;;;;;;;;;23.00;43.60;;;;;;1608594;72;820;-60
2021/05/17 05:18:28;;;;;;;;;;;23.00;43.60;;;;;;1618425;72;795;-59
2021/05/17 05:20:31;;;;;;;;;;;23.10;43.70;;;;;;1614622;72;1162;-60
2021/05/17 05:22:34;;;;;;;;;;;23.00;43.70;;;;;;1616390;72;832;-58
2021/05/17 05:24:36;;;;;;;;;;;23.00;43.70;;;;;;1615209;72;1375;-59
2021/05/17 05:27:00;;;;;;;;;;;23.00;43.80;;;;;;1613934;72;802;-59
2021/05/17 05:31:06;;;;;;;;;;;23.10;43.90;;;;;;1615743;72;1143;-59
2021/05/17 05:33:11;;;;;;;;;;;23.00;43.70;;;;;;1604526;72;1906;-59
2021/05/17 05:35:10;;;;;;;;;;;23.10;43.90;;;;;;1614043;72;1737;-59
2021/05/17 05:37:12;;;;;;;;;;;23.00;43.90;;;;;;1610003;72;800;-59
2021/05/17 05:39:14;;;;;;;;;;;23.10;43.90;;;;;;1601644;72;901;-60
2021/05/17 05:41:16;;;;;;;;;;;23.10;43.90;;;;;;1604161;72;1143;-61
2021/05/17 05:43:18;;;;;;;;;;;23.10;44.30;;;;;;1609464;72;743;-60
2021/05/17 05:45:20;;;;;;;;;;;23.10;45.60;;;;;;1602684;72;673;-60
2021/05/17 05:47:22;;;;;;;;;;;23.00;45.10;;;;;;1605018;72;745;-61
2021/05/17 05:49:24;;;;;;;;;;;23.00;45.70;;;;;;1618642;72;711;-59
2021/05/17 05:51:28;;;;;;;;;;;23.10;45.90;;;;;;1616376;72;1146;-59
2021/05/17 05:53:30;;;;;;;;;;;23.10;45.50;;;;;;1619583;72;1908;-60
2021/05/17 05:55:32;;;;;;;;;;;23.10;45.30;;;;;;1603149;72;725;-60
2021/05/17 05:57:41;;;;;;;;;;;23.10;44.70;;;;;;1611603;72;713;-60
2021/05/17 05:59:41;;;;;;;;;;;23.10;44.10;;;;;;1608100;72;1634;-60
2021/05/17 06:01:43;;;;;;;;;;;23.10;44.00;;;;;;1598296;73;778;-62
2021/05/17 06:03:44;;;;;;;;;;;23.10;44.00;;;;;;1619701;71;1056;-57
2021/05/17 06:05:47;;;;;;;;;;;23.10;44.00;;;;;;1628117;71;788;-59
2021/05/17 06:07:49;;;;;;;;;;;23.10;44.00;;;;;;1595718;73;715;-55
2021/05/17 06:09:50;;;;;;;;;;;23.10;43.90;;;;;;1597159;73;1088;-56
2021/05/17 06:11:55;;;;;;;;;;;23.00;43.70;;;;;;1622302;72;802;-60
2021/05/17 06:13:56;;;;;;;;;;;23.00;44.00;;;;;;1619892;72;1916;-59
2021/05/17 06:15:58;;;;;;;;;;;22.90;44.10;;;;;;1607853;71;766;-59
2021/05/17 06:18:00;;;;;;;;;;;22.90;44.00;;;;;;1637552;71;819;-59
2021/05/17 06:20:03;;;;;;;;;;;23.00;43.80;;;;;;1595693;73;1155;-59
2021/05/17 06:22:04;;;;;;;;;;;23.00;43.90;;;;;;1602609;73;783;-59
2021/05/17 06:24:09;;;;;;;;;;;23.00;43.70;;;;;;1621271;72;660;-57
2021/05/17 06:26:11;;;;;;;;;;;23.10;43.60;;;;;;1629010;71;686;-59
2021/05/17 06:28:12;;;;;;;;;;;23.10;43.50;;;;;;1599054;73;767;-60
2021/05/17 06:30:16;;;;;;;;;;;23.00;43.20;;;;;;1606872;72;1133;-59
2021/05/17 06:32:18;;;;;;;;;;;23.00;42.90;;;;;;1622521;72;761;-56
2021/05/17 06:34:20;;;;;;;;;;;23.00;42.80;;;;;;1613783;72;1947;-56
2021/05/17 06:36:22;;;;;;;;;;;23.00;42.90;;;;;;1610580;72;820;-59
2021/05/17 06:38:24;;;;;;;;;;;23.00;42.90;;;;;;1619442;72;731;-60
2021/05/17 06:40:26;;;;;;;;;;;23.00;42.80;;;;;;1615495;72;1094;-55
2021/05/17 06:42:28;;;;;;;;;;;23.00;42.60;;;;;;1606478;72;840;-58
2021/05/17 06:44:30;;;;;;;;;;;23.00;42.60;;;;;;1610259;72;722;-58
2021/05/17 06:46:32;;;;;;;;;;;23.00;42.60;;;;;;1618292;72;790;-58
2021/05/17 06:48:42;;;;;;;;;;;23.00;42.60;;;;;;1606632;72;724;-59
2021/05/17 06:50:38;;;;;;;;;;;23.00;42.50;;;;;;1620177;72;1632;-60
2021/05/17 06:52:40;;;;;;;;;;;23.00;42.40;;;;;;1611572;72;780;-59
2021/05/17 06:54:43;;;;;;;;;;;23.00;42.30;;;;;;1613341;72;1927;-59
2021/05/17 06:56:53;;;;;;;;;;;23.00;42.30;;;;;;1611679;72;818;-58
2021/05/17 06:58:57;;;;;;;;;;;23.00;42.20;;;;;;1605508;72;1605;-59
2021/05/17 07:00:59;;;;;;;;;;;23.00;42.20;;;;;;1619206;72;1645;-58
2021/05/17 07:03:02;;;;;;;;;;;22.90;43.00;;;;;;1613617;72;749;-59
2021/05/17 07:05:04;;;;;;;;;;;22.90;43.60;;;;;;1624086;72;693;-56
2021/05/17 07:07:06;;;;;;;;;;;22.80;44.10;;;;;;1612796;72;710;-57
2021/05/17 07:11:39;;;;;;;;;;;22.90;44.70;;;;;;1609807;72;1653;-56
2021/05/17 07:13:34;;;;;;;;;;;23.00;44.50;;;;;;1612142;72;2067;-59
2021/05/17 07:15:36;;;;;;;;;;;23.00;44.50;;;;;;1605238;72;791;-59
2021/05/17 07:17:38;;;;;;;;;;;23.00;44.90;;;;;;1599561;72;813;-59
2021/05/17 07:19:40;;;;;;;;;;;23.00;44.70;;;;;;1610664;72;1162;-58
2021/05/17 07:24:02;;;;;;;;;;;23.10;44.80;;;;;;1601851;72;1637;-57
2021/05/17 07:26:04;;;;;;;;;;;23.10;44.70;;;;;;1603707;72;651;-58
2021/05/17 07:28:06;;;;;;;;;;;23.10;44.60;;;;;;1608131;72;809;-60
2021/05/17 07:30:08;;;;;;;;;;;23.10;44.50;;;;;;1601913;72;1117;-59
2021/05/17 07:32:11;;;;;;;;;;;23.10;44.40;;;;;;1600428;72;734;-60
2021/05/17 07:34:13;;;;;;;;;;;23.10;44.30;;;;;;1607374;72;1901;-60
2021/05/17 07:36:15;;;;;;;;;;;23.10;44.20;;;;;;1606085;72;729;-56
2021/05/17 07:38:18;;;;;;;;;;;23.10;44.10;;;;;;1606216;72;838;-58
2021/05/17 07:40:20;;;;;;;;;;;23.10;44.00;;;;;;1610143;72;1187;-57
2021/05/17 07:42:22;;;;;;;;;;;23.10;43.90;;;;;;1617898;72;736;-60
2021/05/17 07:44:24;;;;;;;;;;;23.10;43.90;;;;;;1611825;72;817;-58
2021/05/17 07:46:26;;;;;;;;;;;23.10;43.90;;;;;;1612076;72;769;-60
2021/05/17 07:48:28;;;;;;;;;;;23.10;43.80;;;;;;1609751;72;726;-58
2021/05/17 07:50:29;;;;;;;;;;;23.10;43.70;;;;;;1615110;72;1173;-58
2021/05/17 07:52:31;;;;;;;;;;;23.10;43.70;;;;;;1608161;72;1062;-60
2021/05/17 07:54:34;;;;;;;;;;;23.10;43.70;;;;;;1612529;72;1932;-58
2021/05/17 07:56:36;;;;;;;;;;;23.10;43.60;;;;;;1625737;72;747;-57
2021/05/17 07:58:38;;;;;;;;;;;23.00;43.50;;;;;;1605522;72;822;-58
2021/05/17 08:00:40;;;;;;;;;;;23.10;43.50;;;;;;1629651;72;1140;-59
2021/05/17 08:02:42;;;;;;;;;;;23.10;43.40;;;;;;1635174;71;680;-59
2021/05/17 08:04:44;;;;;;;;;;;23.00;43.40;;;;;;1631093;71;670;-60
2021/05/17 08:06:46;;;;;;;;;;;23.10;43.40;;;;;;1629053;71;761;-58
2021/05/17 08:08:48;;;;;;;;;;;23.10;43.40;;;;;;1626660;72;785;-56
2021/05/17 08:10:50;;;;;;;;;;;23.10;43.40;;;;;;1637928;71;1156;-60
2021/05/17 08:12:52;;;;;;;;;;;23.10;43.30;;;;;;1635969;71;734;-60
2021/05/17 08:14:53;;;;;;;;;;;23.10;43.40;;;;;;1575452;71;2928;-60
2021/05/17 08:16:55;;;;;;;;;;;23.10;43.30;;;;;;1553106;75;725;-61
2021/05/17 08:18:57;;;;;;;;;;;23.10;43.30;;;;;;1547197;76;666;-57
2021/05/17 08:20:59;;;;;;;;;;;23.10;43.10;;;;;;1535569;76;1146;-58
2021/05/17 08:23:02;;;;;;;;;;;23.00;43.10;;;;;;1521053;76;700;-57
2021/05/17 08:25:04;;;;;;;;;;;23.10;43.20;;;;;;1526817;76;835;-59
2021/05/17 08:27:06;;;;;;;;;;;23.00;43.00;;;;;;1528705;76;712;-59
2021/05/17 08:29:08;;;;;;;;;;;23.20;43.10;;;;;;1527024;77;720;-59
2021/05/17 08:31:13;;;;;;;;;;;23.20;43.10;;;;;;1527886;76;1117;-58
2021/05/17 08:33:14;;;;;;;;;;;23.20;43.10;;;;;;1527382;77;1647;-58
2021/05/17 08:35:16;;;;;;;;;;;23.10;43.00;;;;;;1516986;76;1904;-59
2021/05/17 08:37:18;;;;;;;;;;;23.10;43.10;;;;;;1522654;77;679;-59
2021/05/17 08:39:20;;;;;;;;;;;23.20;43.10;;;;;;1520099;77;822;-59
2021/05/17 08:41:22;;;;;;;;;;;23.20;42.80;;;;;;1519109;76;1092;-59
2021/05/17 08:43:24;;;;;;;;;;;23.10;42.80;;;;;;1517790;77;783;-58
2021/05/17 08:45:26;;;;;;;;;;;23.10;42.70;;;;;;1521158;76;763;-58
2021/05/17 08:47:28;;;;;;;;;;;23.10;42.60;;;;;;1524157;77;712;-59
2021/05/17 08:49:30;;;;;;;;;;;23.20;42.50;;;;;;1522536;77;797;-58
2021/05/17 08:51:33;;;;;;;;;;;23.20;42.40;;;;;;1515022;77;1146;-58
2021/05/17 08:53:35;;;;;;;;;;;23.10;42.50;;;;;;1516900;77;743;-61
2021/05/17 08:55:37;;;;;;;;;;;23.10;42.40;;;;;;1510585;76;1952;-61
2021/05/17 08:57:40;;;;;;;;;;;23.10;42.40;;;;;;1523602;76;801;-60
2021/05/17 08:59:42;;;;;;;;;;;23.10;42.40;;;;;;1520925;76;1971;-61
2021/05/17 09:01:44;;;;;;;;;;;23.20;42.30;;;;;;1521025;77;844;-61
2021/05/17 09:03:48;;;;;;;;;;;23.20;42.30;;;;;;1513213;76;775;-58
2021/05/17 09:05:49;;;;;;;;;;;23.20;42.30;;;;;;1510383;77;1694;-60
2021/05/17 09:07:57;;;;;;;;;;;23.20;42.30;;;;;;1508948;77;747;-60
2021/05/17 09:09:59;;;;;;;;;;;23.30;42.30;;;;;;1514910;77;1635;-59
2021/05/17 09:12:01;;;;;;;;;;;23.30;42.30;;;;;;1518275;77;765;-60
2021/05/17 09:14:11;;;;;;;;;;;23.30;42.10;;;;;;1528450;76;1060;-59
2021/05/17 09:16:12;;;;;;;;;;;23.50;42.30;;;;;;1508311;77;1218;-60
2021/05/17 09:18:15;;;;;;;;;;;23.50;42.20;;;;;;1518826;77;691;-61
2021/05/17 09:20:25;;;;;;;;;;;23.50;42.00;;;;;;1511844;77;1135;-59
2021/05/17 09:22:27;;;;;;;;;;;23.50;41.90;;;;;;1507131;77;717;-60
2021/05/17 09:24:33;;;;;;;;;;;23.50;41.90;;;;;;1517012;77;695;-59
2021/05/17 09:26:38;;;;;;;;;;;23.40;41.70;;;;;;1504391;77;1259;-59
2021/05/17 09:28:39;;;;;;;;;;;23.40;41.70;;;;;;1513382;77;1659;-58
2021/05/17 09:30:45;;;;;;;;;;;23.40;41.80;;;;;;1509985;77;1159;-58
2021/05/17 09:32:47;;;;;;;;;;;23.30;41.60;;;;;;1509656;77;739;-57
2021/05/17 09:34:49;;;;;;;;;;;23.30;41.70;;;;;;1516297;77;1944;-59
2021/05/17 09:36:52;;;;;;;;;;;23.20;41.80;;;;;;1493586;77;728;-59
2021/05/17 09:39:11;;;;;;;;;;;23.20;41.80;;;;;;1510863;77;802;-59
2021/05/17 09:41:12;;;;;;;;;;;23.20;41.80;;;;;;1519007;77;1157;-58
2021/05/17 09:43:19;;;;;;;;;;;23.20;41.80;;;;;;1511406;77;796;-59
2021/05/17 09:45:18;;;;;;;;;;;23.30;41.80;;;;;;1474930;78;1614;-58
2021/05/17 09:47:21;;;;;;;;;;;23.40;41.70;;;;;;1486000;78;736;-59
2021/05/17 09:49:39;;;;;;;;;;;23.50;41.80;;;;;;1479727;78;1077;-62
2021/05/17 09:51:41;;;;;;;;;;;23.50;41.70;;;;;;1481885;78;744;-60
2021/05/17 09:53:47;;;;;;;;;;;23.50;41.70;;;;;;1489119;78;753;-57
2021/05/17 09:55:49;;;;;;;;;;;23.50;41.60;;;;;;1493605;78;1938;-57
2021/05/17 09:57:50;;;;;;;;;;;23.50;41.60;;;;;;1482452;78;727;-58
2021/05/17 09:59:53;;;;;;;;;;;23.50;41.60;;;;;;1490048;78;1150;-59
2021/05/17 10:01:55;;;;;;;;;;;23.50;41.50;;;;;;1481555;78;727;-58
2021/05/17 10:04:03;;;;;;;;;;;23.50;41.60;;;;;;1486518;78;779;-58
2021/05/17 10:06:07;;;;;;;;;;;23.60;41.40;;;;;;1473697;78;734;-58
2021/05/17 10:08:12;;;;;;;;;;;23.60;41.40;;;;;;1473780;79;689;-57
2021/05/17 10:10:13;;;;;;;;;;;23.50;41.30;;;;;;1480213;78;1620;-58
2021/05/17 10:12:15;;;;;;;;;;;23.50;41.40;;;;;;1489461;78;790;-58
2021/05/17 10:14:17;;;;;;;;;;;23.60;41.50;;;;;;1499114;78;796;-59
2021/05/17 10:16:19;;;;;;;;;;;23.50;41.40;;;;;;1498213;78;1954;-59
2021/05/17 10:18:20;;;;;;;;;;;23.50;41.30;;;;;;1496337;78;762;-59
2021/05/17 10:20:23;;;;;;;;;;;23.60;41.30;;;;;;1495030;78;1174;-59
2021/05/17 10:22:25;;;;;;;;;;;23.60;41.20;;;;;;1495545;77;641;-57
2021/05/17 10:24:27;;;;;;;;;;;23.50;41.20;;;;;;1495341;78;704;-55
2021/05/17 10:26:30;;;;;;;;;;;23.60;41.20;;;;;;1496725;77;1123;-58
2021/05/17 10:28:32;;;;;;;;;;;23.50;41.00;;;;;;1501749;77;660;-55
2021/05/17 10:30:36;;;;;;;;;;;23.60;41.00;;;;;;1503521;78;1248;-55
2021/05/17 10:32:43;;;;;;;;;;;23.50;41.00;;;;;;1505849;77;746;-57
2021/05/17 10:34:48;;;;;;;;;;;23.50;40.80;;;;;;1501239;77;1922;-53
2021/05/17 10:36:55;;;;;;;;;;;23.50;40.80;;;;;;1511470;78;770;-56
2021/05/17 10:39:03;;;;;;;;;;;23.50;40.80;;;;;;1497510;78;769;-56
2021/05/17 10:41:19;;;;;;;;;;;23.50;40.80;;;;;;1497880;77;1716;-53
2021/05/17 10:43:39;;;;;;;;;;;23.40;40.40;;;;;;1501724;78;1604;-56
2021/05/17 10:48:09;;;;;;;;;;;23.30;40.20;;;;;;1498846;77;884;-55
2021/05/17 10:50:19;;;;;;;;;;;23.30;40.20;;;;;;1446659;78;1195;-56
2021/05/17 10:52:22;;;;;;;;;;;23.30;40.00;;;;;;1508942;77;1556;-58
2021/05/17 10:54:35;;;;;;;;;;;23.30;40.10;;;;;;1506501;77;698;-57
2021/05/17 11:01:25;;;;;;;;;;;23.20;39.60;;;;;;1507509;77;1685;-58
2021/05/17 11:03:27;;;;;;;;;;;23.20;39.40;;;;;;1503555;77;693;-56
2021/05/17 11:05:30;;;;;;;;;;;23.20;39.30;;;;;;1507751;78;714;-55
2021/05/17 11:07:33;;;;;;;;;;;23.20;39.50;;;;;;1507457;77;676;-54
2021/05/17 11:09:42;;;;;;;;;;;23.20;39.40;;;;;;1507691;77;733;-54
2021/05/17 11:11:47;;;;;;;;;;;23.20;39.10;;;;;;1493072;78;761;-56
2021/05/17 11:13:47;;;;;;;;;;;23.20;39.20;;;;;;1501475;77;1748;-55
2021/05/17 11:15:54;;;;;;;;;;;23.20;39.20;;;;;;1496596;78;1941;-54
2021/05/17 11:18:04;;;;;;;;;;;23.20;39.10;;;;;;1498385;78;692;-58
2021/05/17 11:20:24;;;;;;;;;;;23.30;39.10;;;;;;1509178;78;1095;-56
2021/05/17 11:22:44;;;;;;;;;;;23.30;38.90;;;;;;1504042;78;684;-56
2021/05/17 11:24:47;;;;;;;;;;;23.20;39.00;;;;;;1505491;78;736;-53
2021/05/17 11:26:54;;;;;;;;;;;23.20;38.80;;;;;;1511038;77;650;-58
2021/05/17 11:28:56;;;;;;;;;;;23.20;38.60;;;;;;1505515;77;815;-56
2021/05/17 11:30:59;;;;;;;;;;;23.20;38.70;;;;;;1495048;77;1179;-54
2021/05/17 11:33:17;;;;;;;;;;;23.10;38.80;;;;;;1503481;77;2345;-57
2021/05/17 11:35:20;;;;;;;;;;;23.20;38.60;;;;;;1499964;78;1926;-57
2021/05/17 11:37:22;;;;;;;;;;;23.10;38.70;;;;;;1463325;79;766;-59
2021/05/17 11:39:25;;;;;;;;;;;23.10;38.40;;;;;;1495693;78;716;-59
2021/05/17 11:41:28;;;;;;;;;;;23.20;38.90;;;;;;1501467;77;1122;-56
2021/05/17 11:43:32;;;;;;;;;;;23.20;39.00;;;;;;1496728;77;771;-59
2021/05/17 11:45:35;;;;;;;;;;;23.20;39.10;;;;;;1497034;78;1706;-57
2021/05/17 11:47:37;;;;;;;;;;;23.20;38.80;;;;;;1488130;78;732;-55
2021/05/17 11:49:40;;;;;;;;;;;23.00;37.80;;;;;;1496997;78;1126;-55
2021/05/17 11:51:42;;;;;;;;;;;22.80;36.50;;;;;;1496043;78;769;-59
2021/05/17 11:53:47;;;;;;;;;;;22.60;37.10;;;;;;1500460;78;799;-58
2021/05/17 11:55:50;;;;;;;;;;;22.40;37.20;;;;;;1493417;78;1922;-57
2021/05/17 11:57:52;;;;;;;;;;;22.40;37.30;;;;;;1497425;78;898;-58
2021/05/17 11:59:54;;;;;;;;;;;22.40;37.60;;;;;;1501389;77;1123;-59
2021/05/17 12:01:57;;;;;;;;;;;22.50;38.10;;;;;;1499418;78;799;-58
2021/05/17 12:04:12;;;;;;;;;;;22.60;38.00;;;;;;1496846;77;820;-59
2021/05/17 12:06:14;;;;;;;;;;;22.70;38.00;;;;;;1496712;78;824;-60
2021/05/17 12:08:16;;;;;;;;;;;22.80;38.00;;;;;;1501551;78;760;-59
2021/05/17 12:10:18;;;;;;;;;;;22.80;38.10;;;;;;1501397;77;1135;-60
2021/05/17 12:12:20;;;;;;;;;;;22.90;38.20;;;;;;1501635;78;772;-59
2021/05/17 12:14:22;;;;;;;;;;;22.90;38.10;;;;;;1496840;78;707;-58
2021/05/17 12:16:25;;;;;;;;;;;22.90;38.10;;;;;;1496417;78;1951;-58
2021/05/17 12:18:28;;;;;;;;;;;23.00;38.10;;;;;;1495222;78;852;-56
2021/05/17 12:20:30;;;;;;;;;;;23.00;38.10;;;;;;1496455;78;1587;-59
2021/05/17 12:22:43;;;;;;;;;;;23.00;38.20;;;;;;1496269;77;737;-59
2021/05/17 12:24:42;;;;;;;;;;;23.00;38.20;;;;;;1497199;77;887;-58
2021/05/17 12:26:51;;;;;;;;;;;23.00;38.20;;;;;;1505061;77;869;-57
2021/05/17 12:28:57;;;;;;;;;;;23.00;38.20;;;;;;1498451;78;758;-53
2021/05/17 12:30:59;;;;;;;;;;;23.00;38.20;;;;;;1504092;78;1096;-55
2021/05/17 12:33:02;;;;;;;;;;;23.10;38.40;;;;;;1501281;77;778;-53
2021/05/17 12:35:13;;;;;;;;;;;23.00;38.20;;;;;;1491390;77;694;-55